N35TC KOLV-KOLV
Flight info
| Callsign | N35TC |
|---|---|
| Flight time | 0h 4m |
| Altitude | 1400 |
| Route | DCT |
| Aircraft | C172/L-V/C |
Departure
| Time | 2026-04-18 16:16 |
|---|---|
| Airport | Olive Branch Airport (KOLV) |
Arrival
| Time | 2026-04-18 16:20 |
|---|---|
| Airport | Olive Branch Airport (KOLV) |
| Time | Latitude | Longitude | Altitude | Speed | Heading |
|---|---|---|---|---|---|
| 2026-04-18 15:52 | 34.97700 | -89.78949 | 403 ft | 0 kts | 180° |
| 2026-04-18 16:07 | 34.97687 | -89.78929 | 402 ft | 11 kts | 79° |
| 2026-04-18 16:07 | 34.97754 | -89.78912 | 403 ft | 7 kts | 1° |
| 2026-04-18 16:08 | 34.97769 | -89.78931 | 403 ft | 11 kts | 251° |
| 2026-04-18 16:08 | 34.97657 | -89.78911 | 401 ft | 19 kts | 178° |
| 2026-04-18 16:08 | 34.97607 | -89.78854 | 400 ft | 11 kts | 91° |
| 2026-04-18 16:08 | 34.97605 | -89.78828 | 400 ft | 5 kts | 114° |
| 2026-04-18 16:09 | 34.97507 | -89.78813 | 396 ft | 22 kts | 178° |
| 2026-04-18 16:09 | 34.97314 | -89.78815 | 394 ft | 28 kts | 179° |
| 2026-04-18 16:09 | 34.97134 | -89.78815 | 404 ft | 23 kts | 180° |
| 2026-04-18 16:09 | 34.97054 | -89.78786 | 408 ft | 8 kts | 91° |
| 2026-04-18 16:10 | 34.97054 | -89.78780 | 408 ft | 0 kts | 85° |
| 2026-04-18 16:14 | 34.97055 | -89.78772 | 408 ft | 4 kts | 85° |
| 2026-04-18 16:14 | 34.97058 | -89.78685 | 408 ft | 7 kts | 70° |
| 2026-04-18 16:15 | 34.97129 | -89.78679 | 404 ft | 26 kts | 359° |
| 2026-04-18 16:15 | 34.97522 | -89.78683 | 400 ft | 79 kts | 0° |
| 2026-04-18 16:15 | 34.98092 | -89.78672 | 590 ft | 84 kts | 1° |
| 2026-04-18 16:16 | 34.98681 | -89.78655 | 813 ft | 84 kts | 3° |
| 2026-04-18 16:16 | 34.99264 | -89.78606 | 1040 ft | 83 kts | 0° |
| 2026-04-18 16:16 | 34.99755 | -89.78905 | 1239 ft | 84 kts | 304° |
| 2026-04-18 16:16 | 34.99890 | -89.79592 | 1428 ft | 83 kts | 275° |
| 2026-04-18 16:17 | 34.99897 | -89.80311 | 1450 ft | 86 kts | 256° |
| 2026-04-18 16:17 | 34.99500 | -89.80836 | 1440 ft | 88 kts | 197° |
| 2026-04-18 16:17 | 34.98880 | -89.80880 | 1411 ft | 92 kts | 176° |
| 2026-04-18 16:17 | 34.98241 | -89.80842 | 1385 ft | 92 kts | 176° |
| 2026-04-18 16:18 | 34.97605 | -89.80779 | 1359 ft | 92 kts | 174° |
| 2026-04-18 16:18 | 34.96967 | -89.80717 | 1333 ft | 91 kts | 176° |
| 2026-04-18 16:18 | 34.96331 | -89.80657 | 1305 ft | 92 kts | 174° |
| 2026-04-18 16:18 | 34.95710 | -89.80544 | 1263 ft | 89 kts | 163° |
| 2026-04-18 16:19 | 34.95221 | -89.80141 | 1122 ft | 84 kts | 128° |
| 2026-04-18 16:19 | 34.95059 | -89.79511 | 979 ft | 77 kts | 92° |
| 2026-04-18 16:19 | 34.95188 | -89.78900 | 813 ft | 75 kts | 48° |
| 2026-04-18 16:19 | 34.95653 | -89.78687 | 658 ft | 71 kts | 1° |
| 2026-04-18 16:20 | 34.96131 | -89.78674 | 567 ft | 66 kts | 358° |
| 2026-04-18 16:20 | 34.96579 | -89.78674 | 499 ft | 62 kts | 357° |
| 2026-04-18 16:20 | 34.97007 | -89.78678 | 424 ft | 58 kts | 357° |
| 2026-04-18 16:20 | 34.97355 | -89.78680 | 392 ft | 43 kts | 1° |
| 2026-04-18 16:21 | 34.97588 | -89.78689 | 398 ft | 12 kts | 333° |
| 2026-04-18 16:21 | 34.97605 | -89.78769 | 399 ft | 8 kts | 273° |
| 2026-04-18 16:21 | 34.97606 | -89.78778 | 399 ft | 0 kts | 268° |
| 2026-04-18 16:25 | 34.97605 | -89.78806 | 399 ft | 11 kts | 269° |
| 2026-04-18 16:26 | 34.97607 | -89.78922 | 400 ft | 9 kts | 285° |
| 2026-04-18 16:26 | 34.97632 | -89.78941 | 401 ft | 0 kts | 5° |